Time;durP1;ratioP1;P1;durP2;ratioP2;P2;SDS_P1;SDS_P2;PMS_P1;PMS_P2;Temp;Humidity;BMP_temperature;BMP_pressure;BME280_temperature;BME280_humidity;BME280_pressure;Samples;Min_cycle;Max_cycle;Signal;HPM_P1;HPM_P2
2021/03/18 00:06:43;;;;;;;11.07;4.22;;;;;;;;;;4410098;28;20101;-52
2021/03/18 00:09:11;;;;;;;11.02;4.47;;;;;;;;;;4205338;34;20109;-50
2021/03/18 00:11:37;;;;;;;11.20;3.83;;;;;;;;;;4195405;34;20138;-51
2021/03/18 00:14:04;;;;;;;8.68;4.30;;;;;;;;;;4191727;34;20105;-49
2021/03/18 00:16:29;;;;;;;12.45;4.60;;;;;;;;;;4191532;34;20094;-49
2021/03/18 00:18:55;;;;;;;10.95;4.57;;;;;;;;;;4201623;34;20115;-46
2021/03/18 00:21:21;;;;;;;12.05;5.28;;;;;;;;;;4191246;34;20130;-50
2021/03/18 00:23:48;;;;;;;12.93;3.97;;;;;;;;;;4191182;34;20226;-51
2021/03/18 00:26:14;;;;;;;11.25;4.12;;;;;;;;;;4191237;34;20118;-53
2021/03/18 00:28:40;;;;;;;15.10;3.67;;;;;;;;;;4191700;34;20220;-52
2021/03/18 00:31:06;;;;;;;13.88;4.40;;;;;;;;;;4191410;34;20209;-48
2021/03/18 00:33:32;;;;;;;16.77;4.95;;;;;;;;;;4191677;34;20122;-53
2021/03/18 00:35:58;;;;;;;10.13;3.85;;;;;;;;;;4191061;34;20125;-49
2021/03/18 00:38:24;;;;;;;8.77;3.53;;;;;;;;;;4191383;34;20114;-51
2021/03/18 00:41:14;;;;;;;9.63;3.33;;;;;;;;;;4191077;34;20617;-47
2021/03/18 00:43:40;;;;;;;17.48;3.85;;;;;;;;;;4199594;34;20118;-53
2021/03/18 00:46:06;;;;;;;10.20;3.90;;;;;;;;;;4191164;34;20132;-46
2021/03/18 00:48:33;;;;;;;18.62;4.22;;;;;;;;;;4201445;34;20122;-47
2021/03/18 00:51:00;;;;;;;11.90;3.97;;;;;;;;;;4191261;34;20197;-52
2021/03/18 00:53:34;;;;;;;12.98;4.22;;;;;;;;;;4191306;34;20101;-51
2021/03/18 00:56:00;;;;;;;14.35;4.32;;;;;;;;;;4191072;34;20209;-51
2021/03/18 00:58:26;;;;;;;12.55;3.90;;;;;;;;;;4191288;34;20125;-46
2021/03/18 01:00:59;;;;;;;15.75;4.45;;;;;;;;;;4191008;34;20141;-49
2021/03/18 01:03:27;;;;;;;14.15;4.68;;;;;;;;;;4191395;34;20169;-52
2021/03/18 01:05:54;;;;;;;13.45;3.83;;;;;;;;;;4200841;34;20140;-52
2021/03/18 01:08:22;;;;;;;16.30;4.85;;;;;;;;;;4191050;34;20510;-46
2021/03/18 01:10:50;;;;;;;10.77;3.87;;;;;;;;;;4190912;34;20121;-49
2021/03/18 01:13:19;;;;;;;14.65;3.97;;;;;;;;;;4178294;34;20118;-49
2021/03/18 01:15:49;;;;;;;16.27;4.30;;;;;;;;;;4190867;34;20567;-46
2021/03/18 01:18:16;;;;;;;15.55;3.90;;;;;;;;;;4178370;34;20199;-51
2021/03/18 01:20:42;;;;;;;14.98;5.03;;;;;;;;;;4191103;34;20557;-50
2021/03/18 01:23:08;;;;;;;8.40;3.30;;;;;;;;;;4191073;34;20112;-48
2021/03/18 01:25:33;;;;;;;14.38;3.78;;;;;;;;;;4190861;34;20145;-49
2021/03/18 01:27:59;;;;;;;9.35;3.53;;;;;;;;;;4190908;34;20201;-49
2021/03/18 01:30:26;;;;;;;9.00;3.70;;;;;;;;;;4190733;34;20205;-50
2021/03/18 01:32:52;;;;;;;18.67;5.43;;;;;;;;;;4190779;34;20547;-51
2021/03/18 01:35:19;;;;;;;10.77;3.90;;;;;;;;;;4190780;34;20520;-50
2021/03/18 01:37:45;;;;;;;13.77;4.12;;;;;;;;;;4191018;34;20098;-50
2021/03/18 01:40:13;;;;;;;11.25;4.00;;;;;;;;;;4190517;34;20469;-51
2021/03/18 01:42:40;;;;;;;11.15;3.70;;;;;;;;;;4190713;34;20117;-50
2021/03/18 01:45:07;;;;;;;9.50;3.30;;;;;;;;;;4190823;34;20222;-51
2021/03/18 01:47:34;;;;;;;12.70;4.20;;;;;;;;;;4190670;34;20208;-45
2021/03/18 01:50:00;;;;;;;12.95;4.47;;;;;;;;;;4190564;34;20609;-51
2021/03/18 01:52:26;;;;;;;10.25;3.50;;;;;;;;;;4190855;34;20458;-51
2021/03/18 01:54:52;;;;;;;13.95;3.58;;;;;;;;;;4190565;34;20102;-52
2021/03/18 01:57:18;;;;;;;12.63;3.65;;;;;;;;;;4190571;34;20194;-50
2021/03/18 01:59:44;;;;;;;16.67;4.30;;;;;;;;;;4191625;34;20178;-45
2021/03/18 02:02:10;;;;;;;13.30;4.00;;;;;;;;;;4168422;34;20254;-52
2021/03/18 02:04:36;;;;;;;12.27;4.57;;;;;;;;;;4179558;34;20197;-47
2021/03/18 02:07:02;;;;;;;13.20;4.50;;;;;;;;;;4179548;34;20524;-44
2021/03/18 02:09:28;;;;;;;14.05;4.50;;;;;;;;;;4192929;34;20094;-44
2021/03/18 02:11:54;;;;;;;13.15;4.12;;;;;;;;;;4192383;34;20098;-44
2021/03/18 02:14:20;;;;;;;16.45;4.80;;;;;;;;;;4192491;34;20205;-46
2021/03/18 02:16:46;;;;;;;19.00;4.35;;;;;;;;;;4179643;34;20109;-47
2021/03/18 02:19:46;;;;;;;13.20;4.28;;;;;;;;;;4168646;34;20109;-51
2021/03/18 02:22:23;;;;;;;15.27;4.70;;;;;;;;;;4192316;34;20114;-49
2021/03/18 02:25:07;;;;;;;12.77;4.15;;;;;;;;;;4192576;34;20121;-53
2021/03/18 02:27:43;;;;;;;12.57;3.75;;;;;;;;;;4179746;34;20098;-51
2021/03/18 02:30:28;;;;;;;14.90;4.65;;;;;;;;;;4192269;34;20129;-53
2021/03/18 02:33:38;;;;;;;17.77;4.80;;;;;;;;;;4192499;34;20154;-51
2021/03/18 02:36:11;;;;;;;10.55;3.78;;;;;;;;;;4184607;34;20582;-51
2021/03/18 02:38:43;;;;;;;13.52;4.30;;;;;;;;;;4192491;34;20137;-48
2021/03/18 02:41:12;;;;;;;9.18;3.83;;;;;;;;;;4179606;34;20557;-50
2021/03/18 02:43:45;;;;;;;15.55;4.75;;;;;;;;;;4202656;34;20121;-53
2021/03/18 02:46:11;;;;;;;17.92;4.28;;;;;;;;;;4168542;34;20130;-54
2021/03/18 02:48:37;;;;;;;9.82;3.87;;;;;;;;;;4192116;34;20156;-51
2021/03/18 02:51:04;;;;;;;14.75;3.72;;;;;;;;;;4168161;34;20125;-55
2021/03/18 02:53:31;;;;;;;13.98;4.07;;;;;;;;;;4192143;34;20141;-54
2021/03/18 02:55:58;;;;;;;8.10;4.05;;;;;;;;;;4179353;34;20886;-54
2021/03/18 02:58:27;;;;;;;12.70;3.50;;;;;;;;;;4179382;34;20107;-57
2021/03/18 03:00:54;;;;;;;14.18;4.18;;;;;;;;;;4190988;34;20121;-54
2021/03/18 03:03:20;;;;;;;11.65;3.50;;;;;;;;;;4179602;34;20141;-54
2021/03/18 03:05:46;;;;;;;19.33;4.30;;;;;;;;;;4178907;34;20557;-48
2021/03/18 03:08:12;;;;;;;14.95;4.43;;;;;;;;;;4168171;34;20110;-50
2021/03/18 03:10:39;;;;;;;13.73;4.37;;;;;;;;;;4191026;34;20492;-51
2021/03/18 03:13:05;;;;;;;10.95;4.03;;;;;;;;;;4179289;34;20561;-52
2021/03/18 03:15:32;;;;;;;11.90;3.70;;;;;;;;;;4167646;34;20124;-53
2021/03/18 03:17:59;;;;;;;12.13;4.12;;;;;;;;;;4167856;34;20447;-54
2021/03/18 03:20:25;;;;;;;12.65;3.62;;;;;;;;;;4167652;34;20139;-54
2021/03/18 03:22:51;;;;;;;20.52;4.72;;;;;;;;;;4168010;34;20197;-57
2021/03/18 03:25:17;;;;;;;11.12;4.97;;;;;;;;;;4178891;34;20225;-53
2021/03/18 03:28:10;;;;;;;11.95;4.20;;;;;;;;;;4167358;34;20245;-54
2021/03/18 03:30:39;;;;;;;15.07;4.03;;;;;;;;;;4190946;34;20533;-51
2021/03/18 03:33:08;;;;;;;16.90;4.85;;;;;;;;;;4201617;34;20136;-54
2021/03/18 03:35:34;;;;;;;17.87;4.15;;;;;;;;;;4191633;34;20549;-53
2021/03/18 03:38:00;;;;;;;17.48;4.12;;;;;;;;;;4201771;34;20521;-54
2021/03/18 03:40:26;;;;;;;18.98;4.50;;;;;;;;;;4201620;34;20125;-47
2021/03/18 03:42:52;;;;;;;12.70;3.97;;;;;;;;;;4191725;34;20232;-52
2021/03/18 03:45:18;;;;;;;19.87;4.72;;;;;;;;;;4191589;34;20102;-49
2021/03/18 03:47:45;;;;;;;18.70;4.18;;;;;;;;;;4201736;34;20091;-46
2021/03/18 03:50:17;;;;;;;19.48;5.18;;;;;;;;;;4191484;34;20141;-62
2021/03/18 03:53:02;;;;;;;20.95;5.60;;;;;;;;;;4190198;34;20114;-49
2021/03/18 03:55:54;;;;;;;16.08;4.95;;;;;;;;;;4191421;34;20125;-48
2021/03/18 03:58:52;;;;;;;13.65;4.55;;;;;;;;;;4201790;34;20126;-50
2021/03/18 04:01:32;;;;;;;21.25;5.20;;;;;;;;;;4181422;34;20229;-54
2021/03/18 04:04:07;;;;;;;17.65;4.75;;;;;;;;;;4191360;34;20193;-49
2021/03/18 04:06:34;;;;;;;19.87;5.30;;;;;;;;;;4201294;34;20106;-53
2021/03/18 04:12:46;;;;;;;20.83;5.75;;;;;;;;;;4175817;34;20122;-51
2021/03/18 04:15:16;;;;;;;23.02;5.95;;;;;;;;;;4177758;34;20111;-47
2021/03/18 04:18:00;;;;;;;23.27;5.60;;;;;;;;;;4176440;34;20099;-48
2021/03/18 04:21:07;;;;;;;28.02;6.05;;;;;;;;;;4168140;34;20500;-49
2021/03/18 04:23:33;;;;;;;29.52;6.18;;;;;;;;;;4177471;34;20106;-49
2021/03/18 04:26:00;;;;;;;28.52;6.28;;;;;;;;;;4228697;28;20130;-49
2021/03/18 04:28:32;;;;;;;32.60;8.55;;;;;;;;;;4192175;34;20592;-50
2021/03/18 04:30:59;;;;;;;22.98;6.15;;;;;;;;;;4186735;34;20097;-51
2021/03/18 04:33:25;;;;;;;27.35;7.05;;;;;;;;;;4191379;34;20096;-47
2021/03/18 04:35:51;;;;;;;28.30;6.75;;;;;;;;;;4201489;34;20102;-46
2021/03/18 04:38:17;;;;;;;29.45;7.35;;;;;;;;;;4201475;34;20101;-47
2021/03/18 04:40:43;;;;;;;27.08;6.30;;;;;;;;;;4201619;34;20109;-47
2021/03/18 04:43:10;;;;;;;23.75;7.00;;;;;;;;;;4191318;34;20516;-50
2021/03/18 04:45:36;;;;;;;30.67;6.75;;;;;;;;;;4189519;34;20117;-47
2021/03/18 04:48:02;;;;;;;27.90;5.93;;;;;;;;;;4189735;34;20116;-48
2021/03/18 04:50:28;;;;;;;32.15;6.85;;;;;;;;;;4201266;34;20098;-54
2021/03/18 04:53:08;;;;;;;30.02;7.07;;;;;;;;;;4189660;34;20125;-50
2021/03/18 04:55:41;;;;;;;29.35;8.80;;;;;;;;;;4200116;34;20503;-48
2021/03/18 04:58:08;;;;;;;33.20;6.60;;;;;;;;;;4191038;34;20094;-49
2021/03/18 05:00:35;;;;;;;27.10;6.85;;;;;;;;;;4190846;34;20121;-45
2021/03/18 05:03:02;;;;;;;33.42;6.60;;;;;;;;;;4190917;34;20114;-46
2021/03/18 05:05:30;;;;;;;30.90;7.80;;;;;;;;;;4189233;34;20132;-49
2021/03/18 05:07:56;;;;;;;33.60;7.43;;;;;;;;;;4201022;34;20125;-44
2021/03/18 05:10:24;;;;;;;31.87;6.82;;;;;;;;;;4190746;34;20621;-45
2021/03/18 05:12:50;;;;;;;42.03;9.05;;;;;;;;;;4190885;34;20297;-46
2021/03/18 05:15:17;;;;;;;26.37;7.00;;;;;;;;;;4190690;34;20125;-47
2021/03/18 05:17:43;;;;;;;42.42;8.40;;;;;;;;;;4189457;34;20121;-46
2021/03/18 05:20:10;;;;;;;34.10;8.52;;;;;;;;;;4190855;34;20542;-47
2021/03/18 05:22:36;;;;;;;31.85;7.78;;;;;;;;;;4190798;34;20185;-46
2021/03/18 05:25:03;;;;;;;29.35;7.28;;;;;;;;;;4190534;34;20121;-48
2021/03/18 05:27:29;;;;;;;37.25;7.68;;;;;;;;;;4190558;34;20125;-49
2021/03/18 05:29:55;;;;;;;33.20;9.43;;;;;;;;;;4190511;34;20465;-46
2021/03/18 05:32:21;;;;;;;36.67;7.05;;;;;;;;;;4190782;34;20118;-46
2021/03/18 05:34:47;;;;;;;35.95;8.23;;;;;;;;;;4189726;34;20536;-46
2021/03/18 05:37:12;;;;;;;23.77;7.15;;;;;;;;;;4190658;34;20109;-47
2021/03/18 05:39:38;;;;;;;33.15;7.55;;;;;;;;;;4190743;34;20124;-49
2021/03/18 05:42:05;;;;;;;31.80;9.15;;;;;;;;;;4190700;34;20302;-50
2021/03/18 05:44:30;;;;;;;27.92;7.90;;;;;;;;;;4166628;34;20134;-50
2021/03/18 05:46:58;;;;;;;39.35;8.02;;;;;;;;;;4190482;34;20534;-50
2021/03/18 05:49:25;;;;;;;40.72;9.70;;;;;;;;;;4190511;34;20536;-52
2021/03/18 05:51:50;;;;;;;39.80;9.68;;;;;;;;;;4190287;34;20125;-53
2021/03/18 05:54:17;;;;;;;34.90;8.05;;;;;;;;;;4166692;34;20126;-50
2021/03/18 05:56:43;;;;;;;41.85;9.23;;;;;;;;;;4166303;34;20152;-50
2021/03/18 05:59:11;;;;;;;40.45;9.50;;;;;;;;;;4177547;34;20537;-52
2021/03/18 06:01:38;;;;;;;44.97;9.57;;;;;;;;;;4166266;34;20552;-49
2021/03/18 06:04:05;;;;;;;39.10;8.75;;;;;;;;;;4177558;34;20141;-49
2021/03/18 06:06:31;;;;;;;35.03;9.93;;;;;;;;;;4166420;34;20129;-51
2021/03/18 06:08:56;;;;;;;33.75;8.75;;;;;;;;;;4177549;34;20431;-48
2021/03/18 06:11:22;;;;;;;30.95;8.23;;;;;;;;;;4190128;34;20117;-53
2021/03/18 06:13:48;;;;;;;29.17;8.70;;;;;;;;;;4190203;34;20191;-49
2021/03/18 06:16:15;;;;;;;30.77;7.32;;;;;;;;;;4190280;34;20102;-51
2021/03/18 06:18:40;;;;;;;37.92;9.30;;;;;;;;;;4166142;34;20113;-49
2021/03/18 06:21:06;;;;;;;36.90;9.20;;;;;;;;;;4190280;34;20277;-50
2021/03/18 06:23:34;;;;;;;39.35;9.13;;;;;;;;;;4190386;34;20229;-47
2021/03/18 06:26:00;;;;;;;44.13;10.05;;;;;;;;;;4190188;34;20114;-54
2021/03/18 06:28:30;;;;;;;33.35;8.52;;;;;;;;;;4181070;34;20114;-54
2021/03/18 06:31:22;;;;;;;29.98;8.63;;;;;;;;;;4176205;34;20111;-55
2021/03/18 06:33:49;;;;;;;41.33;10.25;;;;;;;;;;4163364;34;20103;-55
2021/03/18 06:36:28;;;;;;;34.00;9.52;;;;;;;;;;4176164;34;20209;-56
2021/03/18 06:39:08;;;;;;;35.88;9.80;;;;;;;;;;4176168;34;20090;-52
2021/03/18 06:41:48;;;;;;;32.92;10.48;;;;;;;;;;4175041;34;20122;-54
2021/03/18 06:44:23;;;;;;;36.05;10.90;;;;;;;;;;4176147;34;20118;-53
2021/03/18 06:46:50;;;;;;;38.35;9.82;;;;;;;;;;4178247;34;20098;-52
2021/03/18 06:49:17;;;;;;;29.48;9.32;;;;;;;;;;4177231;34;20149;-51
2021/03/18 06:51:44;;;;;;;37.65;10.05;;;;;;;;;;4176729;34;20110;-49
2021/03/18 06:54:20;;;;;;;45.03;11.68;;;;;;;;;;4178520;34;20188;-52
2021/03/18 06:56:56;;;;;;;42.28;9.75;;;;;;;;;;4178412;34;20539;-53
2021/03/18 06:59:26;;;;;;;40.83;9.57;;;;;;;;;;4178357;34;20505;-54
2021/03/18 07:02:21;;;;;;;36.38;10.02;;;;;;;;;;4177971;34;20607;-46
2021/03/18 07:04:54;;;;;;;45.75;10.93;;;;;;;;;;4162658;34;20110;-52
2021/03/18 07:07:22;;;;;;;37.03;9.68;;;;;;;;;;4178239;34;20202;-51
2021/03/18 07:09:49;;;;;;;48.67;11.05;;;;;;;;;;4178189;34;20148;-50
2021/03/18 07:12:16;;;;;;;41.97;9.95;;;;;;;;;;4176975;34;20193;-50
2021/03/18 07:14:47;;;;;;;42.50;10.70;;;;;;;;;;4178227;34;20194;-50
2021/03/18 07:17:44;;;;;;;51.83;10.88;;;;;;;;;;4178210;34;20129;-51
2021/03/18 07:20:22;;;;;;;35.85;9.50;;;;;;;;;;4178035;34;20110;-47
2021/03/18 07:22:52;;;;;;;38.55;9.77;;;;;;;;;;4178284;34;20201;-48
2021/03/18 07:25:21;;;;;;;42.55;10.02;;;;;;;;;;4178036;34;20114;-47
2021/03/18 07:27:48;;;;;;;46.40;10.82;;;;;;;;;;4179473;34;20193;-47
2021/03/18 07:30:34;;;;;;;44.75;10.43;;;;;;;;;;4177887;34;20140;-49
2021/03/18 07:33:01;;;;;;;40.53;10.93;;;;;;;;;;4178019;34;20110;-49
2021/03/18 07:35:27;;;;;;;45.90;10.40;;;;;;;;;;4187856;34;20229;-48
2021/03/18 07:37:53;;;;;;;38.95;12.27;;;;;;;;;;4177862;34;20130;-50
2021/03/18 07:40:20;;;;;;;42.40;10.73;;;;;;;;;;4177984;34;20121;-50
2021/03/18 07:42:48;;;;;;;33.03;10.52;;;;;;;;;;4187843;34;20101;-49
2021/03/18 07:45:16;;;;;;;43.47;9.95;;;;;;;;;;4176426;34;20126;-48
2021/03/18 07:47:42;;;;;;;50.00;10.45;;;;;;;;;;4187776;34;20114;-48
2021/03/18 07:50:10;;;;;;;46.20;10.27;;;;;;;;;;4187971;34;20098;-50
2021/03/18 07:52:37;;;;;;;37.88;10.27;;;;;;;;;;4187816;34;20129;-49
2021/03/18 07:55:04;;;;;;;38.30;10.35;;;;;;;;;;4187791;34;20110;-50
2021/03/18 07:58:02;;;;;;;48.87;11.07;;;;;;;;;;4187343;34;20141;-53
2021/03/18 08:00:31;;;;;;;53.05;11.25;;;;;;;;;;4182020;34;20137;-51
2021/03/18 08:03:22;;;;;;;43.95;11.02;;;;;;;;;;4191331;34;20109;-50
2021/03/18 08:05:48;;;;;;;43.58;10.75;;;;;;;;;;4191546;34;20106;-52
2021/03/18 08:08:33;;;;;;;42.28;11.20;;;;;;;;;;4191411;34;20198;-49
2021/03/18 08:11:13;;;;;;;40.45;12.27;;;;;;;;;;4191496;34;20137;-50
2021/03/18 08:13:40;;;;;;;47.83;9.85;;;;;;;;;;4191409;34;20114;-50
2021/03/18 08:16:25;;;;;;;48.45;11.35;;;;;;;;;;4201669;34;20590;-51
2021/03/18 08:18:52;;;;;;;47.17;9.82;;;;;;;;;;4191380;34;20535;-52
2021/03/18 08:21:17;;;;;;;53.63;11.27;;;;;;;;;;4191157;34;20580;-50
2021/03/18 08:23:46;;;;;;;48.35;10.85;;;;;;;;;;4191322;34;20521;-51
2021/03/18 08:27:06;;;;;;;40.97;11.32;;;;;;;;;;4191501;34;20209;-48
2021/03/18 08:29:40;;;;;;;48.08;11.20;;;;;;;;;;4200270;34;20502;-47
2021/03/18 08:32:26;;;;;;;41.83;10.63;;;;;;;;;;4191398;34;20110;-46
2021/03/18 08:34:52;;;;;;;;;;;;;;;;;;4201854;34;20133;-51
2021/03/18 08:37:40;;;;;;;47.62;11.02;;;;;;;;;;4191194;34;20389;-48
2021/03/18 08:40:19;;;;;;;49.45;11.02;;;;;;;;;;4191041;34;20114;-48
2021/03/18 08:42:49;;;;;;;43.22;9.52;;;;;;;;;;4191253;34;20137;-52
2021/03/18 08:45:18;;;;;;;52.67;13.13;;;;;;;;;;4190893;34;20121;-53
2021/03/18 08:47:48;;;;;;;47.53;9.35;;;;;;;;;;4191036;34;20190;-51
2021/03/18 08:50:35;;;;;;;51.20;9.52;;;;;;;;;;4201235;34;20560;-51
2021/03/18 08:53:02;;;;;;;45.47;9.27;;;;;;;;;;4188213;34;20153;-54
2021/03/18 08:55:35;;;;;;;44.58;10.25;;;;;;;;;;4190888;34;20114;-52
2021/03/18 08:58:11;;;;;;;43.38;8.68;;;;;;;;;;4191081;34;20101;-51
2021/03/18 09:00:39;;;;;;;55.53;11.45;;;;;;;;;;4190776;34;20106;-50
2021/03/18 09:03:05;;;;;;;38.72;8.80;;;;;;;;;;4201068;34;20129;-49
2021/03/18 09:05:31;;;;;;;47.72;8.77;;;;;;;;;;4190889;34;20193;-51
2021/03/18 09:07:59;;;;;;;46.92;9.15;;;;;;;;;;4201232;34;20113;-48
2021/03/18 09:10:27;;;;;;;48.08;9.90;;;;;;;;;;4191211;34;20201;-50
2021/03/18 09:12:54;;;;;;;46.88;8.75;;;;;;;;;;4200932;34;20515;-49
2021/03/18 09:15:24;;;;;;;43.13;10.27;;;;;;;;;;4191121;34;20121;-48
2021/03/18 09:17:55;;;;;;;51.03;8.70;;;;;;;;;;4201218;34;20129;-49
2021/03/18 09:20:24;;;;;;;45.17;9.02;;;;;;;;;;4191022;34;20116;-51
2021/03/18 09:22:50;;;;;;;51.65;9.70;;;;;;;;;;4189503;34;20095;-50
2021/03/18 09:25:17;;;;;;;56.17;11.27;;;;;;;;;;4190423;34;20266;-49
2021/03/18 09:27:44;;;;;;;54.03;14.35;;;;;;;;;;4190956;34;20125;-48
2021/03/18 09:30:23;;;;;;;43.83;9.43;;;;;;;;;;4200864;34;20114;-49
2021/03/18 09:32:50;;;;;;;58.72;9.70;;;;;;;;;;4190676;34;20218;-49
2021/03/18 09:35:17;;;;;;;56.00;10.60;;;;;;;;;;4190629;34;20110;-51
2021/03/18 09:37:44;;;;;;;51.00;10.25;;;;;;;;;;4200806;34;20271;-52
2021/03/18 09:40:11;;;;;;;56.65;10.48;;;;;;;;;;4190782;34;20470;-50
2021/03/18 09:42:38;;;;;;;49.30;9.27;;;;;;;;;;4190605;34;20114;-50
2021/03/18 09:45:06;;;;;;;49.72;12.00;;;;;;;;;;4190428;34;20110;-52
2021/03/18 09:47:32;;;;;;;63.30;10.98;;;;;;;;;;4190496;34;20106;-49
2021/03/18 09:49:58;;;;;;;47.40;9.88;;;;;;;;;;4190532;34;20102;-50
2021/03/18 09:52:27;;;;;;;52.08;10.35;;;;;;;;;;4190512;34;20106;-51
2021/03/18 09:54:55;;;;;;;50.22;9.88;;;;;;;;;;4190597;34;20470;-52
2021/03/18 09:57:23;;;;;;;54.20;9.18;;;;;;;;;;4190726;34;20133;-50
2021/03/18 09:59:52;;;;;;;53.17;9.57;;;;;;;;;;4190607;34;20125;-52
2021/03/18 10:02:24;;;;;;;49.08;8.88;;;;;;;;;;4190502;34;20192;-50
2021/03/18 10:04:50;;;;;;;57.83;10.95;;;;;;;;;;4190491;34;20123;-50
2021/03/18 10:07:16;;;;;;;53.78;10.88;;;;;;;;;;4190364;34;20149;-50
2021/03/18 10:09:45;;;;;;;54.25;11.73;;;;;;;;;;4177464;34;20109;-51
2021/03/18 10:12:17;;;;;;;49.47;9.77;;;;;;;;;;4190245;34;20094;-50
2021/03/18 10:14:56;;;;;;;42.35;10.10;;;;;;;;;;4190357;34;20102;-51
2021/03/18 10:17:29;;;;;;;59.83;11.07;;;;;;;;;;4177692;34;20105;-51
2021/03/18 10:20:04;;;;;;;43.70;9.98;;;;;;;;;;4190445;34;20126;-50
2021/03/18 10:22:37;;;;;;;51.30;12.32;;;;;;;;;;4180359;34;20217;-49
2021/03/18 10:25:09;;;;;;;55.15;10.07;;;;;;;;;;4192140;34;20122;-52
2021/03/18 10:27:40;;;;;;;41.83;11.30;;;;;;;;;;4179746;34;20140;-50
2021/03/18 10:30:13;;;;;;;49.72;10.55;;;;;;;;;;4192128;34;20114;-52
2021/03/18 10:32:59;;;;;;;51.30;11.18;;;;;;;;;;4192513;34;20481;-48
2021/03/18 10:35:25;;;;;;;49.25;10.20;;;;;;;;;;4192199;34;20238;-50
2021/03/18 10:37:51;;;;;;;50.25;12.23;;;;;;;;;;4192261;34;20124;-51
2021/03/18 10:40:24;;;;;;;56.22;12.23;;;;;;;;;;4191630;34;20526;-52
2021/03/18 10:42:51;;;;;;;51.10;11.45;;;;;;;;;;4188451;34;20205;-49
2021/03/18 10:45:29;;;;;;;51.58;12.27;;;;;;;;;;4191801;34;20122;-51
2021/03/18 10:48:04;;;;;;;64.93;16.12;;;;;;;;;;4192363;34;20113;-48
2021/03/18 10:50:31;;;;;;;47.45;13.40;;;;;;;;;;4201698;34;20115;-45
2021/03/18 10:53:00;;;;;;;57.65;15.05;;;;;;;;;;4192094;34;20114;-51
2021/03/18 10:55:31;;;;;;;54.38;14.75;;;;;;;;;;4192014;34;20209;-48
2021/03/18 10:58:05;;;;;;;59.80;15.27;;;;;;;;;;4191744;34;20197;-50
2021/03/18 11:00:33;;;;;;;46.72;13.23;;;;;;;;;;4190636;34;20122;-51
2021/03/18 11:03:01;;;;;;;54.13;12.48;;;;;;;;;;4201973;34;20121;-49
2021/03/18 11:05:28;;;;;;;47.97;11.98;;;;;;;;;;4191877;34;20557;-51
2021/03/18 11:07:55;;;;;;;54.03;12.48;;;;;;;;;;4191924;34;20118;-50
2021/03/18 11:10:21;;;;;;;43.97;12.43;;;;;;;;;;4191833;34;20113;-47
2021/03/18 11:12:58;;;;;;;48.60;12.18;;;;;;;;;;4192143;34;20193;-50
2021/03/18 11:15:23;;;;;;;47.72;12.75;;;;;;;;;;4191765;34;20125;-49
2021/03/18 11:18:06;;;;;;;46.40;11.65;;;;;;;;;;4191919;34;20114;-52
2021/03/18 11:20:39;;;;;;;41.28;10.57;;;;;;;;;;4201742;34;20205;-46
2021/03/18 11:23:06;;;;;;;45.22;11.02;;;;;;;;;;4191466;34;20106;-49
2021/03/18 11:25:32;;;;;;;46.65;9.32;;;;;;;;;;4201608;34;20202;-48
2021/03/18 11:27:58;;;;;;;45.55;10.25;;;;;;;;;;4191835;34;20106;-49
2021/03/18 11:30:35;;;;;;;46.08;9.75;;;;;;;;;;4191588;34;20200;-49
2021/03/18 11:33:23;;;;;;;45.08;10.07;;;;;;;;;;4190955;34;20122;-49
2021/03/18 11:35:50;;;;;;;54.33;12.43;;;;;;;;;;4192075;34;20116;-52
2021/03/18 11:38:18;;;;;;;50.12;11.50;;;;;;;;;;4191765;34;20133;-46
2021/03/18 11:40:45;;;;;;;47.22;12.05;;;;;;;;;;4191747;34;20185;-47
2021/03/18 11:43:12;;;;;;;48.22;13.55;;;;;;;;;;4191698;34;20118;-48
2021/03/18 11:45:37;;;;;;;60.53;16.90;;;;;;;;;;4191752;34;20551;-47
2021/03/18 11:48:04;;;;;;;60.28;17.00;;;;;;;;;;4191637;34;20188;-47
2021/03/18 11:50:31;;;;;;;61.88;19.65;;;;;;;;;;4191535;34;20117;-48
2021/03/18 11:52:57;;;;;;;63.42;21.00;;;;;;;;;;4191593;34;20446;-49
2021/03/18 11:55:23;;;;;;;57.90;20.08;;;;;;;;;;4191548;34;20217;-46
2021/03/18 11:57:54;;;;;;;65.60;17.15;;;;;;;;;;4191517;34;20259;-46
2021/03/18 12:00:21;;;;;;;57.28;16.08;;;;;;;;;;4179232;34;20119;-46
2021/03/18 12:02:48;;;;;;;48.03;16.70;;;;;;;;;;4191748;34;20107;-48
2021/03/18 12:05:14;;;;;;;48.13;16.00;;;;;;;;;;4191691;34;20149;-47
2021/03/18 12:07:39;;;;;;;49.05;14.05;;;;;;;;;;4191444;34;20102;-48
2021/03/18 12:10:06;;;;;;;47.95;14.20;;;;;;;;;;4191386;34;20136;-47
2021/03/18 12:12:32;;;;;;;45.50;14.93;;;;;;;;;;4191435;34;20106;-48
2021/03/18 12:14:58;;;;;;;49.53;15.65;;;;;;;;;;4191351;34;20130;-46
2021/03/18 12:17:23;;;;;;;45.90;12.23;;;;;;;;;;4178623;34;20214;-46
2021/03/18 12:19:49;;;;;;;49.67;12.98;;;;;;;;;;4191040;34;20141;-47
2021/03/18 12:22:16;;;;;;;41.47;12.63;;;;;;;;;;4190776;34;20106;-45
2021/03/18 12:24:42;;;;;;;46.67;13.05;;;;;;;;;;4190904;34;20130;-47
2021/03/18 12:27:08;;;;;;;43.75;12.18;;;;;;;;;;4191367;34;20117;-44
2021/03/18 12:29:33;;;;;;;43.63;13.15;;;;;;;;;;4178449;34;20105;-45
2021/03/18 12:31:59;;;;;;;45.63;12.23;;;;;;;;;;4191321;34;20128;-45
2021/03/18 12:34:25;;;;;;;40.33;13.52;;;;;;;;;;4191325;34;20551;-45
2021/03/18 12:36:51;;;;;;;54.22;14.65;;;;;;;;;;4191205;34;20201;-46
2021/03/18 12:39:17;;;;;;;50.12;14.85;;;;;;;;;;4191282;34;20225;-49
2021/03/18 12:41:43;;;;;;;51.00;15.00;;;;;;;;;;4191213;34;20126;-48
2021/03/18 12:44:09;;;;;;;35.58;10.77;;;;;;;;;;4191009;34;20695;-53
2021/03/18 12:46:35;;;;;;;54.95;14.43;;;;;;;;;;4190660;34;20487;-48
2021/03/18 12:49:01;;;;;;;46.13;12.90;;;;;;;;;;4178508;34;20202;-52
2021/03/18 12:51:27;;;;;;;54.30;11.70;;;;;;;;;;4191059;34;20575;-51
2021/03/18 12:53:53;;;;;;;47.78;12.13;;;;;;;;;;4191176;34;20130;-51
2021/03/18 12:56:19;;;;;;;41.17;12.20;;;;;;;;;;4191250;34;20125;-50
2021/03/18 12:58:45;;;;;;;58.13;12.20;;;;;;;;;;4191022;34;20122;-55
2021/03/18 13:01:12;;;;;;;51.00;11.82;;;;;;;;;;4183732;34;20129;-53
2021/03/18 13:03:39;;;;;;;46.95;13.88;;;;;;;;;;4178138;34;20125;-49
2021/03/18 13:06:05;;;;;;;55.08;13.50;;;;;;;;;;4189785;34;20198;-50
2021/03/18 13:08:33;;;;;;;51.60;13.52;;;;;;;;;;4174238;34;20102;-52
2021/03/18 13:10:59;;;;;;;45.97;13.20;;;;;;;;;;4190892;34;20129;-53
2021/03/18 13:13:25;;;;;;;49.63;11.45;;;;;;;;;;4190784;34;20592;-51
2021/03/18 13:15:52;;;;;;;50.10;12.05;;;;;;;;;;4190873;34;20122;-51
2021/03/18 13:18:17;;;;;;;42.08;12.52;;;;;;;;;;4190795;34;20217;-45
2021/03/18 13:20:43;;;;;;;46.33;11.48;;;;;;;;;;4200749;34;20138;-47
2021/03/18 13:23:10;;;;;;;40.78;11.15;;;;;;;;;;4190212;34;20133;-52
2021/03/18 13:25:36;;;;;;;43.70;11.32;;;;;;;;;;4175765;34;20254;-46
2021/03/18 13:28:02;;;;;;;52.15;11.43;;;;;;;;;;4188526;34;20787;-46
2021/03/18 13:30:29;;;;;;;44.00;13.32;;;;;;;;;;4188757;34;20205;-51
2021/03/18 13:32:56;;;;;;;40.42;11.45;;;;;;;;;;4188684;34;20609;-53
2021/03/18 13:35:23;;;;;;;44.28;11.82;;;;;;;;;;4188593;34;20125;-54
2021/03/18 13:37:49;;;;;;;50.72;13.65;;;;;;;;;;4176009;34;21133;-49
2021/03/18 13:40:15;;;;;;;50.45;12.57;;;;;;;;;;4188903;34;20493;-52
2021/03/18 13:42:44;;;;;;;47.97;10.80;;;;;;;;;;4189336;34;20204;-52
2021/03/18 13:45:13;;;;;;;52.78;11.85;;;;;;;;;;4188600;34;20208;-55
2021/03/18 13:47:39;;;;;;;41.65;12.10;;;;;;;;;;4190866;34;20227;-52
2021/03/18 13:50:06;;;;;;;38.58;10.48;;;;;;;;;;4189694;34;20133;-55
2021/03/18 13:52:32;;;;;;;42.08;9.85;;;;;;;;;;4190502;34;20093;-55
2021/03/18 13:54:58;;;;;;;47.33;12.00;;;;;;;;;;4191225;34;20118;-49
2021/03/18 13:57:24;;;;;;;36.25;10.18;;;;;;;;;;4192688;34;20145;-51
2021/03/18 13:59:50;;;;;;;54.53;11.23;;;;;;;;;;4192350;34;20121;-49
2021/03/18 14:02:18;;;;;;;46.10;10.95;;;;;;;;;;4192544;34;20145;-54
2021/03/18 14:04:44;;;;;;;43.03;9.27;;;;;;;;;;4192756;34;20110;-51
2021/03/18 14:07:14;;;;;;;47.92;11.12;;;;;;;;;;4192513;34;20537;-54
2021/03/18 14:09:40;;;;;;;55.10;12.88;;;;;;;;;;4202679;34;20105;-55
2021/03/18 14:12:06;;;;;;;53.45;12.45;;;;;;;;;;4192543;34;20122;-52
2021/03/18 14:14:32;;;;;;;46.53;14.05;;;;;;;;;;4192407;34;20206;-53
2021/03/18 14:16:58;;;;;;;51.47;13.32;;;;;;;;;;4192459;34;20119;-54
2021/03/18 14:19:24;;;;;;;55.63;13.60;;;;;;;;;;4192490;34;20113;-57
2021/03/18 14:21:50;;;;;;;56.75;15.50;;;;;;;;;;4192462;34;20125;-52
2021/03/18 14:24:17;;;;;;;47.95;14.70;;;;;;;;;;4192460;34;20158;-53
2021/03/18 14:26:43;;;;;;;49.20;14.90;;;;;;;;;;4192245;34;20125;-53
2021/03/18 14:29:09;;;;;;;56.25;14.75;;;;;;;;;;4192626;34;20767;-53
2021/03/18 14:31:35;;;;;;;55.67;14.82;;;;;;;;;;4192319;34;20133;-54
2021/03/18 14:34:02;;;;;;;54.38;14.50;;;;;;;;;;4192346;34;20118;-54
2021/03/18 14:36:28;;;;;;;59.33;15.52;;;;;;;;;;4192531;34;20090;-57
2021/03/18 14:38:54;;;;;;;49.15;15.52;;;;;;;;;;4192419;34;20109;-53
2021/03/18 14:41:20;;;;;;;51.30;14.45;;;;;;;;;;4192260;34;20094;-52
2021/03/18 14:43:46;;;;;;;53.67;15.73;;;;;;;;;;4202620;34;20603;-47
2021/03/18 14:46:12;;;;;;;49.70;14.85;;;;;;;;;;4192354;34;20137;-49